Time;durP1;ratioP1;P1;durP2;ratioP2;P2;SDS_P1;SDS_P2;PMS_P1;PMS_P2;Temp;Humidity;BMP_temperature;BMP_pressure;BME280_temperature;BME280_humidity;BME280_pressure;Samples;Min_cycle;Max_cycle;Signal;HPM_P1;HPM_P2
2023/01/23 00:00:21;;;;;;;4.07;3.78;;;;;;;8.62;73.76;95308.66;5117085;28;20202;-70
2023/01/23 00:02:48;;;;;;;4.50;4.10;;;;;;;8.63;74.08;95303.94;5116329;28;20184;-70
2023/01/23 00:05:15;;;;;;;4.78;4.00;;;;;;;8.72;73.14;95296.44;5117415;28;20215;-70
2023/01/23 00:07:43;;;;;;;4.15;3.72;;;;;;;8.82;72.67;95312.56;5117267;28;20604;-70
2023/01/23 00:10:13;;;;;;;3.72;3.33;;;;;;;8.88;72.24;95316.69;5117427;28;20184;-70
2023/01/23 00:12:41;;;;;;;3.90;3.60;;;;;;;8.96;71.58;95317.75;5116898;28;20210;-70
2023/01/23 00:15:09;;;;;;;4.63;3.55;;;;;;;9.02;71.66;95318.38;5116731;28;20192;-71
2023/01/23 00:17:36;;;;;;;5.20;4.80;;;;;;;8.91;72.35;95317.97;5116602;28;20573;-71
2023/01/23 00:20:03;;;;;;;5.25;4.85;;;;;;;8.84;72.91;95306.69;5116601;28;20195;-71
2023/01/23 00:22:30;;;;;;;5.20;4.80;;;;;;;8.81;73.35;95315.63;5116460;28;20199;-71
2023/01/23 00:24:58;;;;;;;5.13;4.63;;;;;;;8.74;73.35;95318.91;5116147;28;20220;-71
2023/01/23 00:27:24;;;;;;;5.03;4.55;;;;;;;8.73;73.57;95319.25;5116126;28;20199;-71
2023/01/23 00:29:52;;;;;;;4.88;4.47;;;;;;;8.72;73.81;95318.44;5116811;28;20197;-71
2023/01/23 00:32:19;;;;;;;4.70;4.30;;;;;;;8.71;73.66;95325.06;5116788;28;20199;-71
2023/01/23 00:34:46;;;;;;;4.40;4.00;;;;;;;8.77;73.58;95320.97;5117226;28;20184;-71
2023/01/23 00:37:13;;;;;;;4.40;4.00;;;;;;;8.76;73.11;95324.09;5115870;28;20195;-71
2023/01/23 00:39:40;;;;;;;4.85;4.45;;;;;;;8.79;73.18;95320.66;5116187;28;20203;-71
2023/01/23 00:42:08;;;;;;;4.40;4.00;;;;;;;8.79;73.27;95318.72;5116126;28;20203;-70
2023/01/23 00:44:35;;;;;;;4.35;4.05;;;;;;;8.77;73.00;95329.25;5115991;28;20216;-71
2023/01/23 00:47:01;;;;;;;4.68;4.30;;;;;;;8.67;73.65;95322.19;5115980;28;20260;-72
2023/01/23 00:49:29;;;;;;;4.68;4.28;;;;;;;8.59;74.02;95331.31;5116775;28;20192;-71
2023/01/23 00:51:56;;;;;;;4.68;4.20;;;;;;;8.58;74.23;95326.94;5116858;28;20184;-71
2023/01/23 00:54:24;;;;;;;4.47;4.18;;;;;;;8.60;74.06;95327.41;5116488;28;20207;-71
2023/01/23 00:56:51;;;;;;;4.30;3.95;;;;;;;8.58;74.06;95321.44;5115520;28;20206;-71
2023/01/23 00:59:20;;;;;;;4.88;4.00;;;;;;;8.55;74.01;95322.13;5115825;28;20211;-71
2023/01/23 01:01:46;;;;;;;3.92;3.63;;;;;;;8.54;73.86;95325.22;5115801;28;20192;-71
2023/01/23 01:04:13;;;;;;;4.50;4.10;;;;;;;8.51;74.06;95314.88;5116574;28;20195;-71
2023/01/23 01:06:40;;;;;;;4.70;4.30;;;;;;;8.43;74.11;95300.84;5116533;28;20521;-71
2023/01/23 01:09:06;;;;;;;4.85;4.45;;;;;;;8.39;74.48;95301.88;5115368;28;20654;-71
2023/01/23 01:11:33;;;;;;;7.50;5.00;;;;;;;8.38;74.36;95308.47;5115509;28;20195;-71
2023/01/23 01:14:00;;;;;;;4.85;4.45;;;;;;;8.29;74.74;95308.50;5114865;28;20207;-72
2023/01/23 01:16:28;;;;;;;5.35;4.85;;;;;;;8.30;74.64;95309.31;5115644;28;20248;-71
2023/01/23 01:18:55;;;;;;;6.43;5.43;;;;;;;8.31;75.00;95317.22;5116363;28;20198;-71
2023/01/23 01:21:22;;;;;;;4.90;4.40;;;;;;;8.37;74.81;95315.09;5115972;28;20244;-71
2023/01/23 01:23:48;;;;;;;5.90;5.30;;;;;;;8.38;74.62;95324.97;5116232;28;20187;-72
2023/01/23 01:26:15;;;;;;;4.63;4.20;;;;;;;8.34;74.68;95335.00;5115371;28;20212;-72
2023/01/23 01:28:42;;;;;;;4.47;4.13;;;;;;;8.34;74.52;95346.78;5116177;28;20199;-71
2023/01/23 01:31:11;;;;;;;5.10;4.65;;;;;;;8.43;74.13;95344.84;5115381;28;20204;-71
2023/01/23 01:33:40;;;;;;;4.45;4.15;;;;;;;8.50;74.16;95338.00;5115060;28;20515;-72
2023/01/23 01:36:11;;;;;;;4.30;3.75;;;;;;;8.55;73.86;95346.06;5115815;28;20642;-72
2023/01/23 01:38:37;;;;;;;3.70;3.40;;;;;;;8.58;73.45;95350.88;5116009;28;20189;-71
2023/01/23 01:41:04;;;;;;;3.83;3.53;;;;;;;8.55;73.74;95340.56;5115222;28;20192;-71
2023/01/23 01:43:32;;;;;;;4.63;4.22;;;;;;;8.54;73.83;95348.00;5115929;28;20190;-71
2023/01/23 01:46:14;;;;;;;4.30;3.88;;;;;;;8.53;73.93;95345.56;5116047;28;20203;-71
2023/01/23 01:48:46;;;;;;;4.72;3.80;;;;;;;8.55;73.93;95343.31;5115878;28;20549;-71
2023/01/23 01:51:19;;;;;;;4.20;3.28;;;;;;;8.55;73.62;95344.09;5115893;28;20200;-71
2023/01/23 01:53:47;;;;;;;3.38;3.08;;;;;;;8.56;73.70;95329.22;5115824;28;20194;-71
2023/01/23 01:56:14;;;;;;;3.53;3.22;;;;;;;8.61;73.40;95334.53;5114725;28;20264;-71
2023/01/23 01:58:43;;;;;;;3.55;3.28;;;;;;;8.66;73.50;95358.28;5114551;28;20231;-71
2023/01/23 02:01:09;;;;;;;3.10;2.90;;;;;;;8.64;73.51;95336.63;5114764;28;20200;-71
2023/01/23 02:03:36;;;;;;;3.60;3.30;;;;;;;8.68;73.52;95336.75;5115604;28;20240;-71
2023/01/23 02:06:05;;;;;;;3.17;2.97;;;;;;;8.72;73.38;95337.69;5115335;28;20211;-71
2023/01/23 02:08:35;;;;;;;3.00;2.80;;;;;;;8.72;73.67;95345.16;5115669;28;20217;-71
2023/01/23 02:11:02;;;;;;;3.33;3.00;;;;;;;8.69;74.29;95338.38;5114699;28;20206;-71
2023/01/23 02:13:34;;;;;;;3.55;3.28;;;;;;;8.71;74.21;95333.31;5115595;28;20184;-71
2023/01/23 02:16:03;;;;;;;3.88;3.42;;;;;;;8.71;74.35;95341.56;5115592;28;20184;-71
2023/01/23 02:18:31;;;;;;;3.67;3.28;;;;;;;8.72;74.52;95339.66;5115123;28;20191;-71
2023/01/23 02:21:01;;;;;;;3.50;3.20;;;;;;;8.65;74.72;95340.16;5115238;28;20188;-71
2023/01/23 02:23:37;;;;;;;3.58;3.20;;;;;;;8.61;75.42;95339.22;5115208;28;20192;-71
2023/01/23 02:26:07;;;;;;;3.50;3.20;;;;;;;8.60;75.51;95340.34;5117894;28;20279;-73
2023/01/23 02:28:40;;;;;;;3.42;3.13;;;;;;;8.56;75.59;95333.91;5118717;28;20203;-71
2023/01/23 02:31:07;;;;;;;2.95;2.75;;;;;;;8.56;75.64;95344.91;5118796;28;20195;-71
2023/01/23 02:33:51;;;;;;;3.65;3.20;;;;;;;8.58;75.85;95346.19;5118612;28;20207;-71
2023/01/23 02:36:20;;;;;;;3.53;3.22;;;;;;;8.56;76.14;95344.91;5118310;28;20195;-72
2023/01/23 02:38:54;;;;;;;3.20;2.92;;;;;;;8.56;76.04;95342.16;5119298;28;20210;-72
2023/01/23 02:41:26;;;;;;;3.10;2.80;;;;;;;8.52;76.20;95349.47;5118428;28;20248;-72
2023/01/23 02:43:54;;;;;;;3.28;2.83;;;;;;;8.52;76.00;95336.53;5118414;28;20195;-72
2023/01/23 02:46:20;;;;;;;3.22;2.97;;;;;;;8.45;76.38;95336.25;5118884;27;20203;-71
2023/01/23 02:48:48;;;;;;;3.58;3.20;;;;;;;8.33;77.08;95342.44;5118678;28;20206;-72
2023/01/23 02:51:16;;;;;;;4.05;3.13;;;;;;;8.35;77.12;95345.66;5119190;28;20180;-72
2023/01/23 02:53:44;;;;;;;3.97;3.15;;;;;;;8.38;77.40;95346.94;5118320;28;20207;-72
2023/01/23 02:56:10;;;;;;;3.42;3.13;;;;;;;8.38;77.28;95356.00;5119400;28;20200;-72
2023/01/23 03:01:24;;;;;;;3.38;3.10;;;;;;;8.36;77.22;95350.00;5118658;28;20176;-72
2023/01/23 03:03:52;;;;;;;3.65;3.35;;;;;;;8.34;77.02;95348.72;5117703;28;20237;-72
2023/01/23 03:06:19;;;;;;;3.30;3.00;;;;;;;8.34;77.22;95348.72;5117942;28;20215;-72
2023/01/23 03:08:48;;;;;;;3.40;3.10;;;;;;;8.36;77.05;95366.50;5118290;28;20202;-71
2023/01/23 03:11:16;;;;;;;3.17;2.95;;;;;;;8.41;76.88;95373.78;5118510;27;20649;-71
2023/01/23 03:13:45;;;;;;;3.78;3.00;;;;;;;8.41;76.90;95371.03;5118793;27;20183;-72
2023/01/23 03:16:12;;;;;;;3.00;2.80;;;;;;;8.39;76.85;95378.81;5118331;28;20616;-72
2023/01/23 03:18:38;;;;;;;3.10;2.90;;;;;;;8.35;76.64;95373.16;5118904;28;20248;-72
2023/01/23 03:21:07;;;;;;;3.00;2.80;;;;;;;8.39;76.76;95371.38;5118322;28;20680;-72
2023/01/23 03:23:34;;;;;;;3.10;2.90;;;;;;;8.30;76.77;95370.56;5118198;28;20504;-72
2023/01/23 03:26:02;;;;;;;3.10;2.80;;;;;;;8.33;77.10;95378.16;5118497;28;20253;-72
2023/01/23 03:31:16;;;;;;;3.05;2.85;;;;;;;8.35;77.01;95375.06;5117451;28;20228;-72
2023/01/23 03:33:44;;;;;;;2.90;2.70;;;;;;;8.22;77.38;95370.63;5118148;28;20176;-72
2023/01/23 03:36:11;;;;;;;3.00;2.80;;;;;;;8.24;77.35;95360.88;5116717;28;20202;-72
2023/01/23 03:41:23;;;;;;;3.00;2.80;;;;;;;8.28;76.65;95367.38;5117755;28;20575;-71
2023/01/23 03:41:24;;;;;;;3.13;2.83;;;;;;;8.36;76.58;95372.00;5117192;28;20591;-71
2023/01/23 03:43:51;;;;;;;2.80;2.60;;;;;;;8.39;76.08;95360.38;5118425;28;20248;-71
2023/01/23 03:46:19;;;;;;;3.60;3.30;;;;;;;8.44;75.74;95373.94;5117294;28;20215;-71
2023/01/23 03:48:46;;;;;;;2.80;2.60;;;;;;;8.50;75.52;95371.81;5117833;28;20184;-71
2023/01/23 03:51:13;;;;;;;3.38;3.08;;;;;;;8.54;75.53;95375.50;5117148;28;20198;-71
2023/01/23 03:53:40;;;;;;;2.70;2.50;;;;;;;8.58;75.48;95368.19;5117088;28;20252;-71
2023/01/23 03:56:07;;;;;;;2.75;2.55;;;;;;;8.57;75.30;95366.59;5117777;28;20513;-71
2023/01/23 03:58:34;;;;;;;3.03;2.83;;;;;;;8.57;74.99;95374.84;5116600;28;20239;-71
2023/01/23 04:01:02;;;;;;;2.80;2.58;;;;;;;8.51;75.38;95365.16;5117876;28;20200;-72
2023/01/23 04:03:31;;;;;;;3.00;2.80;;;;;;;8.54;75.39;95364.50;5117176;28;20216;-72
2023/01/23 04:05:58;;;;;;;3.03;2.83;;;;;;;8.57;75.25;95366.59;5117511;28;20243;-72
2023/01/23 04:08:25;;;;;;;3.00;2.75;;;;;;;8.53;75.64;95371.13;5117347;28;20206;-72
2023/01/23 04:11:00;;;;;;;3.10;2.90;;;;;;;8.50;75.55;95371.00;5117480;27;20646;-72
2023/01/23 04:13:26;;;;;;;3.60;3.30;;;;;;;8.52;75.36;95365.97;5117000;28;20520;-72
2023/01/23 04:15:54;;;;;;;3.90;3.53;;;;;;;8.51;75.33;95362.41;5116700;28;20199;-76
2023/01/23 04:18:20;;;;;;;3.65;3.35;;;;;;;8.39;75.90;95370.56;5117532;28;20187;-72
2023/01/23 04:20:49;;;;;;;3.33;3.08;;;;;;;8.30;76.31;95369.78;5116436;28;20218;-72
2023/01/23 04:23:15;;;;;;;3.40;3.15;;;;;;;8.29;76.40;95373.66;5116773;28;20585;-72
2023/01/23 04:25:42;;;;;;;4.35;4.03;;;;;;;8.32;76.15;95370.25;5117100;28;20191;-72
2023/01/23 04:28:09;;;;;;;3.88;3.58;;;;;;;8.36;76.17;95368.44;5117751;27;20300;-72
2023/01/23 04:30:36;;;;;;;3.50;3.20;;;;;;;8.25;76.16;95376.25;5117038;28;20184;-72
2023/01/23 04:33:03;;;;;;;3.05;2.85;;;;;;;8.20;76.29;95373.69;5116514;28;20187;-72
2023/01/23 04:35:30;;;;;;;3.95;3.53;;;;;;;8.16;76.38;95389.22;5116993;28;20175;-71
2023/01/23 04:37:58;;;;;;;4.20;3.80;;;;;;;8.18;76.40;95396.00;5116159;28;20600;-72
2023/01/23 04:40:25;;;;;;;3.15;2.95;;;;;;;8.26;76.45;95399.84;5117114;28;20252;-72
2023/01/23 04:42:52;;;;;;;3.63;3.35;;;;;;;8.33;76.12;95410.34;5116276;28;20192;-72
2023/01/23 04:45:18;;;;;;;3.25;2.78;;;;;;;8.34;75.25;95407.25;5116786;28;20604;-72
2023/01/23 04:47:45;;;;;;;3.10;2.90;;;;;;;8.36;75.08;95398.69;5116119;28;20200;-72
2023/01/23 04:50:12;;;;;;;2.92;2.72;;;;;;;8.37;74.83;95408.53;5115685;28;20199;-72
2023/01/23 04:52:39;;;;;;;3.13;2.90;;;;;;;8.37;74.70;95403.03;5116890;28;20184;-72
2023/01/23 04:55:08;;;;;;;2.58;2.40;;;;;;;8.40;74.39;95399.66;5116330;28;20198;-72
2023/01/23 04:57:35;;;;;;;2.60;2.40;;;;;;;8.33;74.51;95402.09;5116371;28;20751;-72
2023/01/23 05:00:02;;;;;;;2.80;2.40;;;;;;;8.36;74.72;95398.69;5116106;28;20195;-73
2023/01/23 05:02:29;;;;;;;3.15;2.95;;;;;;;8.34;74.54;95399.00;5115962;28;20215;-72
2023/01/23 05:04:56;;;;;;;2.50;2.30;;;;;;;8.33;74.33;95394.66;5116401;28;20627;-73
2023/01/23 05:07:22;;;;;;;2.50;2.30;;;;;;;8.18;75.10;95400.69;5115758;28;20219;-73
2023/01/23 05:09:50;;;;;;;2.80;2.60;;;;;;;8.09;75.60;95399.91;5116714;28;20199;-73
2023/01/23 05:12:18;;;;;;;2.70;2.50;;;;;;;7.99;76.37;95401.09;5117079;28;20432;-74
2023/01/23 05:14:45;;;;;;;2.33;2.13;;;;;;;7.95;76.77;95403.69;5117294;28;20184;-71
2023/01/23 05:17:11;;;;;;;3.13;2.50;;;;;;;7.96;76.66;95410.00;5116886;28;20195;-72
2023/01/23 05:19:38;;;;;;;3.10;2.80;;;;;;;8.01;76.98;95420.00;5115836;28;20226;-73
2023/01/23 05:22:05;;;;;;;3.15;2.85;;;;;;;8.09;76.91;95428.19;5116921;28;20524;-73
2023/01/23 05:24:31;;;;;;;3.35;3.05;;;;;;;8.19;76.53;95430.59;5116980;28;20188;-73
2023/01/23 05:26:58;;;;;;;3.10;2.80;;;;;;;8.24;75.95;95439.78;5116445;28;20554;-74
2023/01/23 05:29:27;;;;;;;2.97;2.78;;;;;;;8.24;75.83;95445.28;5115868;28;20619;-74
2023/01/23 05:31:53;;;;;;;3.53;2.90;;;;;;;8.23;76.07;95452.72;5115741;28;20204;-73
2023/01/23 05:34:21;;;;;;;3.40;3.10;;;;;;;8.22;76.01;95456.59;5116499;28;20179;-73
2023/01/23 05:36:48;;;;;;;3.05;2.83;;;;;;;8.26;76.11;95451.25;5116714;28;20191;-73
2023/01/23 05:39:14;;;;;;;3.88;3.42;;;;;;;8.24;75.91;95456.25;5115674;28;20211;-73
2023/01/23 05:41:41;;;;;;;3.35;3.05;;;;;;;8.12;75.91;95466.00;5116470;28;20196;-73
2023/01/23 05:44:08;;;;;;;3.35;2.70;;;;;;;8.16;76.23;95458.72;5116634;28;20195;-73
2023/01/23 05:46:36;;;;;;;3.58;3.20;;;;;;;8.16;75.95;95449.66;5116819;28;20230;-73
2023/01/23 05:49:23;;;;;;;3.05;2.85;;;;;;;8.01;76.08;95448.25;5115324;28;20199;-71
2023/01/23 05:51:50;;;;;;;3.53;3.22;;;;;;;7.98;76.68;95437.91;5116442;28;20192;-74
2023/01/23 05:54:16;;;;;;;2.65;2.45;;;;;;;7.92;76.57;95439.25;5116109;28;20180;-72
2023/01/23 05:56:43;;;;;;;3.58;2.97;;;;;;;7.87;76.68;95433.91;5115481;28;20199;-74
2023/01/23 05:59:10;;;;;;;2.67;2.47;;;;;;;7.81;76.68;95447.03;5115465;28;20219;-74
2023/01/23 06:01:38;;;;;;;3.28;3.05;;;;;;;7.82;76.51;95440.38;5115710;28;20198;-74
2023/01/23 06:04:05;;;;;;;2.63;2.42;;;;;;;7.83;76.48;95449.44;5115895;28;20199;-74
2023/01/23 06:06:33;;;;;;;2.90;2.70;;;;;;;7.87;76.32;95451.19;5115909;28;20203;-74
2023/01/23 06:08:59;;;;;;;2.80;2.60;;;;;;;7.91;75.85;95465.06;5115164;28;20252;-74
2023/01/23 06:11:26;;;;;;;3.22;2.92;;;;;;;8.05;76.56;95451.97;5114764;28;20192;-75
2023/01/23 06:13:53;;;;;;;3.15;2.90;;;;;;;8.20;74.52;95464.34;5115780;28;20188;-75
2023/01/23 06:16:20;;;;;;;2.40;2.20;;;;;;;8.11;74.35;95466.34;5115381;28;20192;-74
2023/01/23 06:18:48;;;;;;;2.53;2.33;;;;;;;8.02;74.49;95463.59;5115850;28;20184;-74
2023/01/23 06:21:17;;;;;;;2.63;2.40;;;;;;;8.07;74.67;95468.94;5114927;28;20195;-74
2023/01/23 06:23:44;;;;;;;3.00;2.70;;;;;;;8.06;74.59;95470.06;5114744;28;20206;-74
2023/01/23 06:26:10;;;;;;;3.20;2.65;;;;;;;8.05;74.61;95481.38;5115685;28;20192;-74
2023/01/23 06:28:37;;;;;;;2.47;2.28;;;;;;;8.14;74.17;95469.25;5114520;28;20219;-74
2023/01/23 06:31:23;;;;;;;3.40;3.00;;;;;;;8.07;74.21;95471.69;5115611;28;20189;-74
2023/01/23 06:34:10;;;;;;;2.40;2.20;;;;;;;8.04;73.82;95475.09;5115430;28;20260;-74
2023/01/23 06:36:55;;;;;;;2.50;2.30;;;;;;;8.09;73.64;95471.34;5115527;28;20187;-74
2023/01/23 06:39:41;;;;;;;3.25;3.03;;;;;;;8.12;73.91;95463.25;5115318;28;20630;-74
2023/01/23 06:42:09;;;;;;;2.80;2.60;;;;;;;8.15;73.67;95468.09;5115561;28;20180;-74
2023/01/23 06:44:36;;;;;;;2.70;2.50;;;;;;;8.15;73.47;95470.03;5114625;28;20223;-74
2023/01/23 06:47:23;;;;;;;3.15;2.45;;;;;;;8.14;73.95;95480.22;5114945;28;20215;-74
2023/01/23 06:49:51;;;;;;;3.92;3.53;;;;;;;8.20;73.83;95495.38;5115242;28;20599;-74
2023/01/23 06:52:18;;;;;;;3.40;3.10;;;;;;;8.17;73.89;95485.06;5115416;28;20192;-74
2023/01/23 06:54:49;;;;;;;3.33;3.03;;;;;;;8.22;73.87;95497.81;5115439;28;20199;-74
2023/01/23 06:57:16;;;;;;;3.60;3.30;;;;;;;8.17;73.82;95487.03;5115386;28;20251;-74
2023/01/23 06:59:43;;;;;;;3.42;3.13;;;;;;;8.12;74.01;95507.22;5115327;28;20181;-74
2023/01/23 07:02:10;;;;;;;4.57;4.18;;;;;;;8.13;74.10;95516.25;5114314;28;20206;-75
2023/01/23 07:04:37;;;;;;;4.55;4.07;;;;;;;8.13;74.87;95528.09;5114967;28;20184;-74
2023/01/23 07:07:05;;;;;;;5.20;4.70;;;;;;;8.18;74.60;95530.66;5114602;28;20207;-74
2023/01/23 07:09:32;;;;;;;5.97;5.20;;;;;;;8.22;74.82;95530.81;5114255;28;20200;-74
2023/01/23 07:11:59;;;;;;;5.53;5.03;;;;;;;8.16;75.17;95541.13;5115754;28;20211;-74
2023/01/23 07:14:27;;;;;;;4.72;4.25;;;;;;;8.13;75.33;95527.25;5119177;27;20257;-75
2023/01/23 07:16:56;;;;;;;5.85;5.35;;;;;;;8.15;75.45;95538.72;5117744;28;20253;-75
2023/01/23 07:19:22;;;;;;;5.47;4.97;;;;;;;8.07;75.73;95528.56;5118710;28;20176;-75
2023/01/23 07:21:49;;;;;;;5.85;5.28;;;;;;;8.00;76.05;95531.00;5117801;28;20199;-75
2023/01/23 07:24:18;;;;;;;4.95;4.55;;;;;;;7.96;76.12;95533.59;5118083;28;20195;-73
2023/01/23 07:26:44;;;;;;;4.93;4.50;;;;;;;7.88;76.81;95535.22;5118618;28;20207;-74
2023/01/23 07:29:11;;;;;;;6.20;5.50;;;;;;;7.92;76.54;95538.13;5118790;28;20194;-74
2023/01/23 07:31:38;;;;;;;6.03;5.53;;;;;;;7.97;76.32;95544.25;5119128;28;20180;-73
2023/01/23 07:34:05;;;;;;;6.82;6.22;;;;;;;8.01;76.38;95532.59;5119091;28;20179;-73
2023/01/23 07:36:32;;;;;;;5.95;5.45;;;;;;;7.97;76.70;95549.75;5118214;28;20195;-74
2023/01/23 07:38:58;;;;;;;7.07;6.43;;;;;;;7.95;76.30;95553.94;5117881;28;20208;-74
2023/01/23 07:41:27;;;;;;;6.55;6.03;;;;;;;7.84;77.12;95555.38;5117789;28;20200;-74
2023/01/23 07:43:53;;;;;;;6.45;5.85;;;;;;;7.85;77.38;95562.53;5117507;28;20192;-73
2023/01/23 07:46:22;;;;;;;6.78;6.13;;;;;;;7.82;77.57;95563.16;5118069;28;20196;-73
2023/01/23 07:48:49;;;;;;;6.18;5.68;;;;;;;7.77;77.97;95561.41;5118121;28;20235;-73
2023/01/23 07:51:16;;;;;;;6.70;6.10;;;;;;;7.77;78.14;95549.56;5117372;28;20206;-74
2023/01/23 07:53:42;;;;;;;7.60;6.90;;;;;;;7.80;78.22;95568.16;5117229;28;20225;-74
2023/01/23 07:56:09;;;;;;;6.63;5.93;;;;;;;7.83;77.86;95560.09;5118533;28;20196;-74
2023/01/23 07:58:37;;;;;;;6.57;5.97;;;;;;;7.78;78.75;95564.94;5117597;28;20246;-74
2023/01/23 08:01:08;;;;;;;7.30;6.60;;;;;;;7.76;79.16;95561.69;5116725;28;20196;-74
2023/01/23 08:03:35;;;;;;;6.90;6.30;;;;;;;7.72;78.51;95565.09;5116948;28;20199;-74
2023/01/23 08:06:02;;;;;;;7.10;6.28;;;;;;;7.68;79.51;95566.06;5117714;28;20244;-74
2023/01/23 08:08:29;;;;;;;6.50;5.90;;;;;;;7.61;79.28;95569.28;5117115;28;20328;-74
2023/01/23 08:10:56;;;;;;;7.50;5.82;;;;;;;7.60;79.51;95567.69;5117120;28;20231;-73
2023/01/23 08:13:22;;;;;;;5.78;5.28;;;;;;;7.57;79.12;95564.75;5116950;28;20196;-74
2023/01/23 08:15:52;;;;;;;6.13;5.53;;;;;;;7.63;79.15;95580.75;5117730;28;20195;-74
2023/01/23 08:18:18;;;;;;;6.70;6.10;;;;;;;7.64;78.52;95581.56;5116690;28;20196;-74
2023/01/23 08:20:52;;;;;;;6.82;6.22;;;;;;;7.71;78.82;95590.13;5117826;28;20187;-74
2023/01/23 08:23:19;;;;;;;6.03;5.50;;;;;;;7.80;77.70;95606.59;5117203;28;20484;-73
2023/01/23 08:25:46;;;;;;;6.20;5.40;;;;;;;7.77;76.80;95612.72;5116961;28;20210;-73
2023/01/23 08:28:13;;;;;;;5.65;5.15;;;;;;;7.81;76.48;95611.00;5117278;28;20211;-73
2023/01/23 08:30:40;;;;;;;6.25;5.07;;;;;;;7.83;76.59;95609.50;5117375;28;20176;-73
2023/01/23 08:33:08;;;;;;;5.50;5.00;;;;;;;7.84;76.04;95610.31;5116508;28;20535;-73
2023/01/23 08:35:36;;;;;;;6.00;5.40;;;;;;;7.89;75.71;95610.19;5116368;28;20199;-73
2023/01/23 08:38:04;;;;;;;5.85;5.35;;;;;;;7.82;75.68;95602.41;5117151;28;20211;-73
2023/01/23 08:40:31;;;;;;;5.25;4.85;;;;;;;7.77;75.57;95594.34;5116434;28;20295;-73
2023/01/23 08:42:58;;;;;;;5.65;5.20;;;;;;;7.68;75.78;95599.00;5117155;28;20199;-73
2023/01/23 08:45:25;;;;;;;6.25;5.65;;;;;;;7.70;75.84;95594.81;5116985;28;20256;-73
2023/01/23 08:47:52;;;;;;;5.20;4.72;;;;;;;7.69;74.98;95604.16;5116593;28;20207;-74
2023/01/23 08:50:20;;;;;;;5.30;4.85;;;;;;;7.66;74.36;95599.34;5116631;28;20611;-73
2023/01/23 08:52:47;;;;;;;5.00;4.60;;;;;;;7.63;74.31;95599.97;5098689;28;20215;-74
2023/01/23 08:55:14;;;;;;;5.63;5.22;;;;;;;7.59;74.24;95601.75;5115814;28;20634;-74
2023/01/23 08:57:40;;;;;;;5.55;4.85;;;;;;;7.58;73.73;95605.59;5116002;28;20235;-74
2023/01/23 09:00:10;;;;;;;5.07;4.53;;;;;;;7.60;74.07;95595.13;5116828;28;20202;-73
2023/01/23 09:02:37;;;;;;;4.80;4.40;;;;;;;7.57;73.19;95598.50;5116718;28;20268;-74
2023/01/23 09:05:04;;;;;;;5.20;4.70;;;;;;;7.50;74.07;95619.31;5116515;28;20198;-73
2023/01/23 09:07:35;;;;;;;4.57;4.18;;;;;;;7.47;73.77;95598.81;5116484;28;20200;-73
2023/01/23 09:10:02;;;;;;;4.95;4.55;;;;;;;7.50;73.94;95616.59;5116650;28;20206;-73
2023/01/23 09:12:28;;;;;;;4.30;4.00;;;;;;;7.52;72.92;95606.91;5115587;28;20218;-73
2023/01/23 09:14:55;;;;;;;5.50;5.00;;;;;;;7.55;73.85;95598.00;5115791;28;20196;-73
2023/01/23 09:17:22;;;;;;;4.60;4.20;;;;;;;7.59;73.10;95593.53;5115424;28;20199;-73
2023/01/23 09:19:48;;;;;;;4.47;4.07;;;;;;;7.54;73.21;95601.88;5115065;28;20604;-73
2023/01/23 09:22:16;;;;;;;5.03;4.63;;;;;;;7.58;72.86;95596.56;5116306;28;20184;-73
2023/01/23 09:24:44;;;;;;;5.15;3.97;;;;;;;7.60;72.76;95622.59;5116360;27;20206;-73
2023/01/23 09:27:11;;;;;;;4.53;4.13;;;;;;;7.57;73.16;95604.00;5115647;28;20199;-73
2023/01/23 09:29:38;;;;;;;4.43;3.95;;;;;;;7.66;72.45;95593.84;5115988;28;20225;-73
2023/01/23 09:32:05;;;;;;;5.70;4.18;;;;;;;7.67;72.75;95598.19;5115413;28;20187;-73
2023/01/23 09:34:32;;;;;;;4.53;4.13;;;;;;;7.67;72.58;95595.47;5115555;28;20198;-73
2023/01/23 09:36:58;;;;;;;4.55;4.20;;;;;;;7.68;72.33;95588.84;5115078;28;20203;-73
2023/01/23 09:39:25;;;;;;;3.88;3.58;;;;;;;7.64;72.40;95595.28;5115722;28;20551;-73
2023/01/23 09:41:54;;;;;;;4.50;4.05;;;;;;;7.59;72.27;95606.41;5116126;28;20183;-73
2023/01/23 09:44:23;;;;;;;4.70;4.30;;;;;;;7.55;73.23;95602.69;5115694;28;20231;-73
2023/01/23 09:46:51;;;;;;;4.15;3.75;;;;;;;7.54;73.04;95595.59;5115933;28;20210;-73
2023/01/23 09:49:24;;;;;;;5.10;4.65;;;;;;;7.49;73.38;95621.28;5114601;28;20200;-73
2023/01/23 09:51:55;;;;;;;4.65;4.25;;;;;;;7.48;73.64;95614.97;5115744;28;20196;-73
2023/01/23 09:54:37;;;;;;;5.47;4.20;;;;;;;7.52;73.48;95617.88;5115838;28;20217;-73
2023/01/23 09:57:12;;;;;;;4.20;3.90;;;;;;;7.52;72.99;95630.81;5113847;28;20272;-73
2023/01/23 09:59:41;;;;;;;5.00;4.50;;;;;;;7.54;74.10;95642.25;5114798;28;20241;-73
2023/01/23 10:02:14;;;;;;;4.63;4.18;;;;;;;7.52;73.91;95617.88;5115399;28;20200;-73
2023/01/23 10:04:41;;;;;;;4.70;4.30;;;;;;;7.52;73.72;95617.09;5114953;28;20207;-73
2023/01/23 10:07:22;;;;;;;5.50;5.00;;;;;;;7.43;74.27;95617.03;5115780;28;20194;-73
2023/01/23 10:09:59;;;;;;;5.78;5.28;;;;;;;7.46;74.78;95605.44;5115133;28;20207;-73
2023/01/23 10:12:37;;;;;;;5.38;4.60;;;;;;;7.38;75.80;95619.94;5115698;28;20180;-73
2023/01/23 10:15:19;;;;;;;5.13;4.72;;;;;;;7.37;76.25;95607.34;5115831;28;20183;-73
2023/01/23 10:17:52;;;;;;;7.38;4.28;;;;;;;7.26;77.03;95606.03;5115690;28;20260;-73
2023/01/23 10:20:35;;;;;;;7.88;4.93;;;;;;;7.30;77.51;95604.25;5115519;28;20180;-73
2023/01/23 10:23:07;;;;;;;5.57;4.60;;;;;;;7.36;77.10;95617.50;5114810;28;20200;-73
2023/01/23 10:25:37;;;;;;;5.60;5.10;;;;;;;7.33;77.04;95615.41;5115571;28;20192;-73
2023/01/23 10:28:17;;;;;;;6.88;5.35;;;;;;;7.40;77.39;95621.22;5115486;28;20208;-73
2023/01/23 10:30:47;;;;;;;4.95;4.55;;;;;;;7.39;76.91;95627.84;5115276;28;20191;-73
2023/01/23 10:33:15;;;;;;;7.53;5.22;;;;;;;7.42;77.48;95621.72;5114716;28;20195;-73
2023/01/23 10:35:49;;;;;;;5.53;5.03;;;;;;;7.45;76.97;95625.78;5115306;28;20263;-73
2023/01/23 10:38:26;;;;;;;5.15;4.65;;;;;;;7.47;77.58;95629.81;5115907;28;20183;-73
2023/01/23 10:43:39;;;;;;;6.93;5.78;;;;;;;7.42;77.80;95616.25;5115216;28;20205;-73
2023/01/23 10:46:10;;;;;;;6.90;5.00;;;;;;;7.37;77.87;95619.16;5114686;28;20203;-73
2023/01/23 10:48:43;;;;;;;5.75;4.68;;;;;;;7.29;78.32;95614.44;5118414;28;20231;-74
2023/01/23 10:51:31;;;;;;;7.85;6.03;;;;;;;7.26;78.87;95614.25;5118338;28;20202;-73
2023/01/23 10:54:05;;;;;;;5.93;5.32;;;;;;;7.27;78.70;95610.41;5118760;28;20226;-73
2023/01/23 10:56:33;;;;;;;6.90;6.00;;;;;;;7.21;79.20;95618.75;5118548;28;20199;-73
2023/01/23 10:59:02;;;;;;;5.93;5.32;;;;;;;7.16;79.29;95607.13;5118836;28;20590;-73
2023/01/23 11:01:30;;;;;;;5.60;5.10;;;;;;;7.12;79.90;95617.94;5119131;28;20249;-73
2023/01/23 11:03:57;;;;;;;5.97;5.43;;;;;;;7.20;79.45;95613.59;5119084;28;20192;-74
2023/01/23 11:06:24;;;;;;;6.22;5.70;;;;;;;7.23;79.46;95610.22;5119217;28;20262;-73
2023/01/23 11:08:55;;;;;;;6.85;6.15;;;;;;;7.24;79.62;95625.56;5118902;28;20623;-74
2023/01/23 11:11:24;;;;;;;6.40;5.82;;;;;;;7.21;79.90;95615.22;5118884;28;20191;-73
2023/01/23 11:14:05;;;;;;;6.38;5.80;;;;;;;7.22;80.28;95622.31;5118915;28;20184;-73
2023/01/23 11:16:33;;;;;;;6.90;5.70;;;;;;;7.17;80.07;95617.78;5118063;28;20592;-74
2023/01/23 11:19:09;;;;;;;5.65;5.15;;;;;;;7.19;80.44;95617.47;5118906;28;20188;-73
2023/01/23 11:21:38;;;;;;;7.07;6.38;;;;;;;7.19;80.22;95612.00;5118732;28;20286;-74
2023/01/23 11:24:10;;;;;;;7.05;6.45;;;;;;;7.24;79.71;95614.59;5118914;28;20191;-73
2023/01/23 11:26:38;;;;;;;6.45;5.85;;;;;;;7.19;80.91;95612.81;5117993;28;20195;-73
2023/01/23 11:29:23;;;;;;;6.40;5.80;;;;;;;7.31;80.35;95603.16;5118380;28;20211;-73
2023/01/23 11:31:52;;;;;;;6.68;6.07;;;;;;;7.33;80.11;95609.91;5118436;28;20498;-73
2023/01/23 11:34:23;;;;;;;7.45;6.85;;;;;;;7.32;80.48;95605.56;5117291;28;20203;-73
2023/01/23 11:36:54;;;;;;;7.47;6.80;;;;;;;7.17;81.02;95606.00;5118580;28;20187;-73
2023/01/23 11:39:37;;;;;;;8.00;7.05;;;;;;;7.16;81.88;95609.88;5117383;28;20517;-73
2023/01/23 11:42:04;;;;;;;7.28;6.63;;;;;;;7.19;81.46;95610.06;5118206;28;20188;-73
2023/01/23 11:44:32;;;;;;;8.63;6.65;;;;;;;7.08;81.30;95600.50;5118309;27;20184;-73
2023/01/23 11:47:39;;;;;;;8.32;6.40;;;;;;;7.05;82.01;95611.31;5117228;28;20195;-73
2023/01/23 11:50:38;;;;;;;6.45;5.80;;;;;;;7.04;82.15;95613.22;5117065;28;20207;-73
2023/01/23 11:53:15;;;;;;;6.20;5.60;;;;;;;7.06;82.15;95596.44;5117840;27;20257;-73
2023/01/23 11:56:06;;;;;;;7.13;6.43;;;;;;;6.97;82.36;95599.97;5118026;28;20522;-73
2023/01/23 11:59:08;;;;;;;7.13;6.53;;;;;;;7.01;82.67;95605.63;5114679;28;20545;-73